X  Close Metar Aviation Weather Data     NZWN Wellington International Airport
Temperature
15°C Temperature
13°C Dewpoint
88% Humidity



Wind
23 KM/H
14 MPH
6 M/S
12 KTS



360°
North
Current Conditions

Mostly Cloudy Mostly Cloudy
Pressure 1010.92 (hPa) - 29.85 (inHg)
Visibility 6.2 (mile) - 10 (km)
Airport
Airport-code NZWN

Location: Wellington International Airport
Distance: 14 (km)

Metar:
NZWN 141200Z AUTO 36012KT 9999 BKN017/// 15/13 Q1011 TEMPO BKN012

Time: 15-06-2021 00:00 NZST